createdAt,value
2022-07-26T00:02:35.848Z,21.9
2022-07-26T00:08:12.427Z,21.9
2022-07-26T00:13:47.476Z,21.8
2022-07-26T00:19:43.876Z,21.9
2022-07-26T00:25:16.563Z,21.8
2022-07-26T00:30:51.371Z,21.8
2022-07-26T00:36:26.252Z,21.8
2022-07-26T00:42:01.107Z,21.8
2022-07-26T00:47:35.794Z,21.8
2022-07-26T00:53:10.780Z,21.7
2022-07-26T00:58:46.595Z,21.7
2022-07-26T01:04:21.498Z,21.7
2022-07-26T01:09:57.406Z,21.7
2022-07-26T01:15:32.154Z,21.7
2022-07-26T01:21:09.620Z,21.7
2022-07-26T01:26:49.107Z,21.6
2022-07-26T01:32:24.065Z,21.6
2022-07-26T01:37:58.994Z,21.6
2022-07-26T01:43:34.987Z,21.6
2022-07-26T01:49:10.439Z,21.6
2022-07-26T01:54:46.551Z,21.6
2022-07-26T02:00:22.263Z,21.5
2022-07-26T02:05:58.214Z,21.5
2022-07-26T02:11:34.176Z,21.5
2022-07-26T02:17:30.853Z,21.5
2022-07-26T02:23:03.755Z,21.5
2022-07-26T02:28:38.532Z,21.5
2022-07-26T02:34:13.280Z,21.5
2022-07-26T02:39:49.058Z,21.4
2022-07-26T02:45:23.948Z,21.4
2022-07-26T02:50:59.631Z,21.4
2022-07-26T02:56:34.437Z,21.4
2022-07-26T03:02:09.304Z,21.4
2022-07-26T03:07:44.452Z,21.4
2022-07-26T03:13:19.275Z,21.4
2022-07-26T03:19:16.292Z,21.4
2022-07-26T03:24:49.119Z,21.3
2022-07-26T03:30:24.443Z,21.3
2022-07-26T03:36:01.424Z,21.3
2022-07-26T03:41:36.581Z,21.3
2022-07-26T03:47:12.555Z,21.3
2022-07-26T03:52:47.375Z,21.3
2022-07-26T03:58:22.643Z,21.3
2022-07-26T04:03:57.335Z,21.3
2022-07-26T04:09:33.240Z,21.3
2022-07-26T04:15:08.055Z,21.2
2022-07-26T04:20:43.836Z,21.2
2022-07-26T04:26:18.640Z,21.2
2022-07-26T04:31:53.523Z,21.2
2022-07-26T04:37:28.379Z,21.2
2022-07-26T04:43:03.359Z,21.2
2022-07-26T04:48:38.194Z,21.2
2022-07-26T04:54:14.437Z,21.2
2022-07-26T04:59:58.280Z,21.2
2022-07-26T05:05:59.952Z,21.1
2022-07-26T05:11:34.547Z,21.1
2022-07-26T05:17:31.146Z,21.1
2022-07-26T05:23:12.091Z,21.1
2022-07-26T05:28:47.007Z,21.1
2022-07-26T05:34:22.052Z,21.1
2022-07-26T05:39:56.788Z,21.1
2022-07-26T05:45:31.877Z,21.1
2022-07-26T05:51:07.446Z,21.1
2022-07-26T05:56:43.720Z,21.1
2022-07-26T06:02:18.716Z,21
2022-07-26T06:07:54.318Z,21
2022-07-26T06:13:29.295Z,21
2022-07-26T06:19:25.977Z,21.1
2022-07-26T06:24:58.598Z,21.1
2022-07-26T06:30:33.215Z,21.1
2022-07-26T06:36:08.924Z,21
2022-07-26T06:41:43.863Z,20.6
2022-07-26T06:47:18.696Z,20.5
2022-07-26T06:52:53.477Z,20.2
2022-07-26T06:58:28.153Z,20
2022-07-26T07:04:02.955Z,19.9
2022-07-26T07:09:37.761Z,20
2022-07-26T07:15:12.694Z,20
2022-07-26T07:20:48.441Z,19.9
2022-07-26T07:26:23.360Z,20.1
2022-07-26T07:31:59.727Z,20.2
2022-07-26T07:37:53.338Z,20.3
2022-07-26T07:43:30.159Z,20.7
2022-07-26T07:49:05.429Z,21.1
2022-07-26T07:54:44.590Z,21.1
2022-07-26T08:00:20.116Z,21.8
2022-07-26T08:06:02.707Z,21.8
2022-07-26T08:11:37.613Z,22.1
2022-07-26T08:17:17.717Z,22.5
2022-07-26T08:23:09.462Z,22.8
2022-07-26T08:28:47.633Z,21.9
2022-07-26T08:34:35.144Z,21
2022-07-26T08:40:09.786Z,20.5
2022-07-26T08:45:44.460Z,20.2
2022-07-26T08:51:19.104Z,20.4
2022-07-26T08:56:54.013Z,20.8
2022-07-26T09:02:28.839Z,20.9
2022-07-26T09:08:04.913Z,20.9
2022-07-26T09:13:39.689Z,21.3
2022-07-26T09:19:36.213Z,22.1
2022-07-26T09:25:09.085Z,22.5
2022-07-26T09:30:44.122Z,22.7
2022-07-26T09:36:21.773Z,23.1
2022-07-26T09:42:17.703Z,23.9
2022-07-26T09:48:05.007Z,24.6
2022-07-26T09:53:41.886Z,24.6
2022-07-26T09:59:17.908Z,24.9
2022-07-26T10:04:53.127Z,25.2
2022-07-26T10:10:29.160Z,24.9
2022-07-26T10:16:25.764Z,24.9
2022-07-26T10:22:04.334Z,24.5
2022-07-26T10:27:40.282Z,24.1
2022-07-26T10:33:15.700Z,23.1
2022-07-26T10:38:50.483Z,22.1
2022-07-26T10:44:26.011Z,21.4
2022-07-26T10:50:01.873Z,21.4
2022-07-26T10:55:37.011Z,21.8
2022-07-26T11:01:11.922Z,22.2
2022-07-26T11:06:47.842Z,22.9
2022-07-26T11:12:22.802Z,23.6
2022-07-26T11:18:19.374Z,24.1
2022-07-26T11:23:52.167Z,24.6
2022-07-26T11:29:28.146Z,25
2022-07-26T11:35:29.813Z,26
2022-07-26T11:41:06.609Z,26.7
2022-07-26T11:46:42.030Z,26.9
2022-07-26T11:52:25.397Z,27.5
2022-07-26T11:58:00.855Z,27.5
2022-07-26T12:03:35.758Z,27.4
2022-07-26T12:09:12.528Z,27.6
2022-07-26T12:14:47.740Z,27.6
2022-07-26T12:20:22.891Z,28
2022-07-26T12:25:58.751Z,28.3
2022-07-26T12:31:33.938Z,28.1
2022-07-26T12:37:10.654Z,25.6
2022-07-26T12:42:47.004Z,25
2022-07-26T12:48:21.610Z,24.8
2022-07-26T12:53:56.566Z,24.7
2022-07-26T12:59:31.489Z,24.2
2022-07-26T13:05:06.389Z,24.2
2022-07-26T13:10:42.795Z,24
2022-07-26T13:16:18.752Z,23.8
2022-07-26T13:21:55.177Z,23.6
2022-07-26T13:27:35.267Z,23.5
2022-07-26T13:33:19.682Z,23.6
2022-07-26T13:38:54.543Z,23.5
2022-07-26T13:44:29.196Z,23.3
2022-07-26T13:50:04.096Z,23.5
2022-07-26T13:55:42.748Z,23.4
2022-07-26T14:01:17.526Z,23.6
2022-07-26T14:06:53.683Z,23.8
2022-07-26T14:12:28.486Z,23.7
2022-07-26T14:18:24.951Z,23.7
2022-07-26T14:23:58.821Z,23.8
2022-07-26T14:29:33.667Z,23.9
2022-07-26T14:35:08.517Z,24.1
2022-07-26T14:40:49.618Z,24.4
2022-07-26T14:46:24.558Z,24.5
2022-07-26T14:52:00.762Z,24.6
2022-07-26T14:57:43.542Z,24.5
2022-07-26T15:03:18.264Z,24.5
2022-07-26T15:08:53.144Z,24.6
2022-07-26T15:14:28.013Z,24.3
2022-07-26T15:20:02.748Z,23.9
2022-07-26T15:25:37.570Z,23.9
2022-07-26T15:31:13.380Z,23.9
2022-07-26T15:36:48.638Z,23.9
2022-07-26T15:42:23.671Z,23.9
2022-07-26T15:48:11.296Z,24
2022-07-26T15:53:57.655Z,23.9
2022-07-26T15:59:32.358Z,23.8
2022-07-26T16:05:07.542Z,23.7
2022-07-26T16:10:42.339Z,23.4
2022-07-26T16:16:17.305Z,23.4
2022-07-26T16:21:53.458Z,23.4
2022-07-26T16:27:28.279Z,23.3
2022-07-26T16:33:03.012Z,23.1
2022-07-26T16:38:38.010Z,23.1
2022-07-26T16:44:12.996Z,23.2
2022-07-26T16:49:47.652Z,23.3
2022-07-26T16:55:22.511Z,23.4
2022-07-26T17:00:57.406Z,23.5
2022-07-26T17:06:33.367Z,23.6
2022-07-26T17:12:08.952Z,23.7
2022-07-26T17:17:48.469Z,23.6
2022-07-26T17:23:23.741Z,23.8
2022-07-26T17:28:58.548Z,23.8
2022-07-26T17:34:33.561Z,23.9
2022-07-26T17:40:08.424Z,23.7
2022-07-26T17:45:43.978Z,23.4
2022-07-26T17:51:18.671Z,23.1
2022-07-26T17:56:53.500Z,23
2022-07-26T18:02:28.296Z,22.9
2022-07-26T18:08:03.606Z,22.7
2022-07-26T18:13:41.409Z,22.5
2022-07-26T18:19:37.951Z,22.3
2022-07-26T18:25:11.562Z,22.2
2022-07-26T18:30:46.511Z,21.9
2022-07-26T18:36:21.536Z,21.5
2022-07-26T18:41:56.236Z,21.2
2022-07-26T18:47:31.117Z,20.9
2022-07-26T18:53:06.706Z,20.6
2022-07-26T18:58:41.732Z,20.5
2022-07-26T19:04:16.706Z,20.2
2022-07-26T19:09:58.676Z,20
2022-07-26T19:15:34.138Z,19.8
2022-07-26T19:21:10.480Z,19.6
2022-07-26T19:26:45.918Z,19.5
2022-07-26T19:32:20.706Z,19.3
2022-07-26T19:37:55.924Z,19.1
2022-07-26T19:43:30.785Z,19
2022-07-26T19:49:06.832Z,18.9
2022-07-26T19:54:43.600Z,18.7
2022-07-26T20:00:18.298Z,18.6
2022-07-26T20:05:54.350Z,18.5
2022-07-26T20:11:28.995Z,18.4
2022-07-26T20:17:25.987Z,18.4
2022-07-26T20:23:01.893Z,18.4
2022-07-26T20:28:36.961Z,18.4
2022-07-26T20:34:11.908Z,18.4
2022-07-26T20:39:46.768Z,18.5
2022-07-26T20:45:26.534Z,18.5
2022-07-26T20:51:01.431Z,18.8
2022-07-26T20:56:36.218Z,19.1
2022-07-26T21:02:11.175Z,19.2
2022-07-26T21:07:53.807Z,19.3
2022-07-26T21:13:35.537Z,19.3
2022-07-26T21:19:32.162Z,19.3
2022-07-26T21:25:04.857Z,19.3
2022-07-26T21:30:40.135Z,19.4
2022-07-26T21:36:18.376Z,19.4
2022-07-26T21:41:54.186Z,19.4
2022-07-26T21:47:30.003Z,19.5
2022-07-26T21:53:06.286Z,19.5
2022-07-26T21:58:41.194Z,19.5
2022-07-26T22:04:16.046Z,19.6
2022-07-26T22:09:50.966Z,19.6
2022-07-26T22:15:25.602Z,19.6
2022-07-26T22:21:04.388Z,19.6
2022-07-26T22:26:39.526Z,19.6
2022-07-26T22:32:15.403Z,19.6
2022-07-26T22:37:51.532Z,19.6
2022-07-26T22:43:30.910Z,19.6
2022-07-26T22:49:05.952Z,19.6
2022-07-26T22:54:52.563Z,19.6
2022-07-26T23:00:27.624Z,19.6
2022-07-26T23:06:02.764Z,19.6
2022-07-26T23:11:40.354Z,19.6
2022-07-26T23:17:37.514Z,19.6
2022-07-26T23:23:12.537Z,19.6
2022-07-26T23:28:47.364Z,19.6
2022-07-26T23:34:22.236Z,19.6
2022-07-26T23:39:57.054Z,19.5
2022-07-26T23:45:31.775Z,19.5
2022-07-26T23:51:07.005Z,19.5
2022-07-26T23:56:43.107Z,19.5
